Mc Henry, Mississippi
Current Conditions -  °F | °C
As of 12:53 PM on Thursday 30 Oct 2014 (Local Time) from KGPT Reporting Station
Clear Clear  
Wind Chill: 72°   Ceiling: Unl
Heat Index: 72°   Visibility: 10mi
Dew Point: 41°   Wind: 14mph
Humidity: 33%   Direction: 30°NNE
Pressure: 30.07"   Gusts: NA
Location:  30.7166°N, 89.1863°W
Report Text: KGPT 301753Z 03012KT 10SM CLR 22/05 A3007 RMK AO2 SLP180 T02220050 10228 20128 58015 $
Loading
Personal Weather Stations






























Interactive Weather Map
Tropical Storm Tracking
New forecast layout! Learn more

10-Day Weather Forecast

Advertisements
Track Severe Weather on mobile